Time;durP1;ratioP1;P1;durP2;ratioP2;P2;SDS_P1;SDS_P2;PMS_P1;PMS_P2;Temp;Humidity;BMP_temperature;BMP_pressure;BME280_temperature;BME280_humidity;BME280_pressure;Samples;Min_cycle;Max_cycle;Signal;HPM_P1;HPM_P2
2023/01/25 00:00:16;;;;;;;21.33;11.38;;;;;;;8.54;100.00;100941.16;5099681;28;20477;-84
2023/01/25 00:02:41;;;;;;;24.85;13.43;;;;;;;8.69;100.00;100939.81;5100397;28;20032;-84
2023/01/25 00:05:07;;;;;;;20.63;12.13;;;;;;;8.67;100.00;100952.22;5100607;28;20500;-83
2023/01/25 00:07:33;;;;;;;23.20;12.38;;;;;;;8.75;100.00;100940.22;5099056;28;20035;-83
2023/01/25 00:09:58;;;;;;;22.75;12.00;;;;;;;8.47;100.00;100932.16;5080330;28;20467;-82
2023/01/25 00:12:25;;;;;;;19.48;11.45;;;;;;;8.50;100.00;100934.53;5098285;28;20506;-84
2023/01/25 00:14:50;;;;;;;21.45;11.32;;;;;;;8.55;100.00;100911.38;5097927;28;20032;-84
2023/01/25 00:17:16;;;;;;;20.70;12.05;;;;;;;8.65;100.00;100922.72;5098836;28;20032;-85
2023/01/25 00:19:42;;;;;;;18.95;11.23;;;;;;;8.55;100.00;100927.94;5098013;28;20032;-83
2023/01/25 00:22:08;;;;;;;17.52;10.05;;;;;;;8.60;100.00;100922.28;5094198;28;20371;-83
2023/01/25 00:24:34;;;;;;;18.27;10.68;;;;;;;8.96;100.00;100927.84;5097091;28;20065;-82
2023/01/25 00:27:03;;;;;;;18.35;10.80;;;;;;;9.05;100.00;100928.81;5098273;28;20042;-82
2023/01/25 00:29:28;;;;;;;22.83;10.55;;;;;;;8.69;100.00;100918.03;5097349;28;20031;-83
2023/01/25 00:32:07;;;;;;;18.67;10.52;;;;;;;8.73;100.00;100923.81;5096097;28;20373;-83
2023/01/25 00:34:42;;;;;;;19.35;11.23;;;;;;;8.83;100.00;100919.41;5096323;28;20036;-85
2023/01/25 00:37:12;;;;;;;17.63;10.85;;;;;;;8.69;100.00;100924.09;5096953;28;20027;-84
2023/01/25 00:39:38;;;;;;;16.65;10.23;;;;;;;8.60;100.00;100911.00;5094885;28;20032;-84
2023/01/25 00:42:07;;;;;;;17.63;10.15;;;;;;;8.65;100.00;100921.88;5095677;28;20028;-82
2023/01/25 00:44:32;;;;;;;19.90;10.25;;;;;;;8.47;100.00;100911.22;5094451;28;20036;-83
2023/01/25 00:46:59;;;;;;;18.02;10.45;;;;;;;8.55;100.00;100927.09;5095630;28;20039;-83
2023/01/25 00:49:26;;;;;;;19.27;10.02;;;;;;;8.65;100.00;100922.72;5095045;28;20020;-82
2023/01/25 00:51:54;;;;;;;17.58;10.88;;;;;;;8.81;100.00;100923.97;5095122;28;20093;-82
2023/01/25 00:54:20;;;;;;;22.60;12.25;;;;;;;8.77;100.00;100919.97;5094787;28;20035;-83
2023/01/25 00:56:46;;;;;;;24.63;13.15;;;;;;;8.51;100.00;100926.53;5095417;28;20032;-82
2023/01/25 00:59:12;;;;;;;22.23;13.73;;;;;;;8.68;100.00;100911.13;5095067;28;20047;-82
2023/01/25 01:01:40;;;;;;;25.35;13.98;;;;;;;8.72;100.00;100912.50;5095561;28;20496;-82
2023/01/25 01:04:05;;;;;;;23.60;13.50;;;;;;;8.43;100.00;100919.31;5095395;28;20081;-83
2023/01/25 01:06:33;;;;;;;27.42;14.70;;;;;;;8.41;100.00;100918.63;5096037;28;20031;-83
2023/01/25 01:08:59;;;;;;;26.48;13.77;;;;;;;8.51;100.00;100910.00;5095561;28;20034;-84
2023/01/25 01:11:25;;;;;;;25.58;13.98;;;;;;;8.60;100.00;100901.34;5094101;28;20541;-81
2023/01/25 01:13:50;;;;;;;25.65;13.73;;;;;;;8.48;100.00;100902.41;5094081;28;20020;-84
2023/01/25 01:16:16;;;;;;;27.67;13.52;;;;;;;8.53;100.00;100908.09;5094170;28;20473;-82
2023/01/25 01:18:44;;;;;;;28.00;14.20;;;;;;;8.66;100.00;100916.53;5095112;28;20039;-81
2023/01/25 01:21:11;;;;;;;26.38;13.95;;;;;;;8.66;100.00;100908.66;5094887;28;20023;-82
2023/01/25 01:23:38;;;;;;;26.77;14.18;;;;;;;8.55;100.00;100896.53;5093903;28;20039;-83
2023/01/25 01:26:05;;;;;;;24.52;14.85;;;;;;;8.46;100.00;100906.94;5094069;28;20107;-85
2023/01/25 01:28:32;;;;;;;25.98;13.63;;;;;;;8.43;100.00;100893.13;5095979;28;20035;-83
2023/01/25 01:31:02;;;;;;;30.58;15.50;;;;;;;8.44;100.00;100894.78;5095834;28;20032;-86
2023/01/25 01:33:28;;;;;;;28.08;15.50;;;;;;;8.28;100.00;100894.50;5097191;28;20370;-83
2023/01/25 01:35:54;;;;;;;27.13;14.13;;;;;;;8.40;100.00;100892.59;5094952;28;20028;-82
2023/01/25 01:38:20;;;;;;;31.27;15.45;;;;;;;8.47;100.00;100885.03;5094969;28;20038;-82
2023/01/25 01:40:47;;;;;;;28.80;15.20;;;;;;;8.33;100.00;100892.31;5094529;28;20044;-83
2023/01/25 01:43:20;;;;;;;27.50;14.43;;;;;;;8.18;100.00;100878.78;5094098;28;20469;-81
2023/01/25 01:45:48;;;;;;;26.80;13.20;;;;;;;8.26;100.00;100870.25;5092902;28;20024;-82
2023/01/25 01:48:37;;;;;;;29.42;14.35;;;;;;;8.56;100.00;100871.16;5094626;28;20024;-82
2023/01/25 01:51:24;;;;;;;25.25;13.02;;;;;;;8.37;100.00;100874.56;5093515;28;20040;-81
2023/01/25 01:54:09;;;;;;;28.05;13.90;;;;;;;8.44;100.00;100868.63;5090467;28;20064;-82
2023/01/25 01:56:50;;;;;;;28.58;14.88;;;;;;;8.43;100.00;100874.81;5091982;28;20059;-82
2023/01/25 01:59:17;;;;;;;23.85;12.60;;;;;;;8.26;100.00;100867.66;5074642;28;20044;-82
2023/01/25 02:01:43;;;;;;;26.63;13.43;;;;;;;8.49;100.00;100872.66;5092699;28;20036;-82
2023/01/25 02:04:11;;;;;;;24.38;12.45;;;;;;;8.05;100.00;100855.44;5093872;28;20735;-83
2023/01/25 02:06:50;;;;;;;25.15;12.95;;;;;;;8.47;100.00;100856.25;5093932;28;20040;-82
2023/01/25 02:09:20;;;;;;;22.75;11.45;;;;;;;8.48;100.00;100863.16;5095456;28;20536;-83
2023/01/25 02:11:46;;;;;;;22.85;10.63;;;;;;;8.41;100.00;100862.84;5094348;28;20027;-83
2023/01/25 02:14:14;;;;;;;21.42;10.95;;;;;;;8.36;100.00;100860.63;5094573;28;20043;-82
2023/01/25 02:16:40;;;;;;;22.10;10.90;;;;;;;8.56;100.00;100855.47;5093481;28;20055;-83
2023/01/25 02:19:11;;;;;;;24.50;11.23;;;;;;;8.64;100.00;100867.88;5094348;28;20040;-83
2023/01/25 02:21:41;;;;;;;22.00;11.20;;;;;;;8.55;100.00;100864.28;5094754;28;20481;-83
2023/01/25 02:24:28;;;;;;;19.45;10.05;;;;;;;8.57;100.00;100864.97;5092416;28;20515;-84
2023/01/25 02:26:54;;;;;;;23.45;11.35;;;;;;;8.41;100.00;100834.88;5093445;28;20122;-83
2023/01/25 02:29:23;;;;;;;24.77;11.82;;;;;;;8.60;100.00;100846.38;5075837;28;20024;-84
2023/01/25 02:31:51;;;;;;;18.90;9.80;;;;;;;8.60;100.00;100853.41;5093962;28;20087;-83
2023/01/25 02:34:17;;;;;;;19.90;10.40;;;;;;;8.68;100.00;100856.16;5092340;28;20031;-83
2023/01/25 02:36:43;;;;;;;17.65;8.98;;;;;;;8.53;100.00;100850.50;5093184;28;20389;-83
2023/01/25 02:39:16;;;;;;;17.58;8.80;;;;;;;8.74;100.00;100852.97;5093336;28;20040;-83
2023/01/25 02:42:01;;;;;;;17.95;9.25;;;;;;;8.76;100.00;100847.63;5092426;28;20047;-83
2023/01/25 02:44:31;;;;;;;14.63;6.80;;;;;;;8.65;100.00;100852.03;5093049;28;20031;-84
2023/01/25 02:47:15;;;;;;;14.07;8.02;;;;;;;8.83;100.00;100848.72;5093972;28;20043;-82
2023/01/25 02:49:41;;;;;;;13.85;7.78;;;;;;;8.80;100.00;100860.31;5093953;28;20035;-83
2023/01/25 02:52:08;;;;;;;12.40;6.75;;;;;;;8.63;100.00;100848.69;5092302;28;20437;-83
2023/01/25 02:54:34;;;;;;;14.90;6.82;;;;;;;8.49;100.00;100839.44;5092903;28;20571;-80
2023/01/25 02:56:59;;;;;;;12.85;6.90;;;;;;;8.68;100.00;100843.91;5092615;28;20024;-81
2023/01/25 02:59:25;;;;;;;14.95;7.63;;;;;;;8.68;100.00;100843.91;5093833;28;20044;-82
2023/01/25 03:01:51;;;;;;;14.10;6.97;;;;;;;8.83;100.00;100857.41;5092658;28;20115;-82
2023/01/25 03:04:16;;;;;;;24.00;9.50;;;;;;;8.57;100.00;100844.03;5092229;28;20362;-82
2023/01/25 03:06:42;;;;;;;28.70;10.30;;;;;;;8.75;100.00;100853.81;5092656;28;20024;-81
2023/01/25 03:09:10;;;;;;;16.73;8.13;;;;;;;8.78;100.00;100848.31;5093567;28;20119;-81
2023/01/25 03:11:35;;;;;;;16.45;7.82;;;;;;;8.71;100.00;100858.50;5092201;28;20031;-81
2023/01/25 03:14:03;;;;;;;16.88;8.38;;;;;;;8.63;100.00;100840.03;5093920;28;20055;-82
2023/01/25 03:16:30;;;;;;;17.48;7.50;;;;;;;8.66;100.00;100843.22;5094546;28;20032;-82
2023/01/25 03:18:56;;;;;;;16.98;7.78;;;;;;;8.65;100.00;100844.19;5093940;28;20085;-81
2023/01/25 03:21:22;;;;;;;14.60;7.85;;;;;;;8.68;100.00;100843.91;5093742;28;20024;-82
2023/01/25 03:23:56;;;;;;;15.23;7.65;;;;;;;8.74;100.00;100852.16;5093346;28;20032;-81
2023/01/25 03:26:24;;;;;;;14.05;7.45;;;;;;;8.67;100.00;100847.50;5090600;28;20044;-81
2023/01/25 03:28:50;;;;;;;13.85;6.78;;;;;;;8.59;100.00;100828.19;5091995;28;20063;-81
2023/01/25 03:31:17;;;;;;;13.27;6.93;;;;;;;8.52;100.00;100843.63;5093066;28;20058;-81
2023/01/25 03:33:43;;;;;;;11.27;6.15;;;;;;;8.81;100.00;100841.00;5093249;28;20497;-80
2023/01/25 03:36:09;;;;;;;11.65;5.70;;;;;;;8.82;100.00;100839.19;5093165;28;20039;-83
2023/01/25 03:38:35;;;;;;;10.60;5.47;;;;;;;8.94;100.00;100838.09;5091726;28;20060;-83
2023/01/25 03:41:05;;;;;;;9.45;5.00;;;;;;;8.89;100.00;100835.09;5086202;28;20107;-83
2023/01/25 03:43:30;;;;;;;9.20;4.53;;;;;;;8.89;100.00;100829.84;5091767;28;20062;-83
2023/01/25 03:46:01;;;;;;;10.10;4.75;;;;;;;9.07;100.00;100823.91;5091786;28;20102;-80
2023/01/25 03:48:27;;;;;;;9.50;4.47;;;;;;;9.11;100.00;100830.50;5091413;28;20036;-82
2023/01/25 03:50:56;;;;;;;8.50;4.30;;;;;;;9.06;100.00;100830.09;5091830;28;20057;-82
2023/01/25 03:53:29;;;;;;;8.73;4.93;;;;;;;9.26;100.00;100831.72;5090507;28;20028;-82
2023/01/25 03:56:08;;;;;;;9.27;4.63;;;;;;;9.27;100.00;100835.16;5083870;28;20444;-83
2023/01/25 03:58:38;;;;;;;6.60;3.75;;;;;;;9.15;100.00;100821.38;5092630;28;20044;-83
2023/01/25 04:01:08;;;;;;;5.38;2.83;;;;;;;9.13;100.00;100831.19;5089370;28;20032;-83
2023/01/25 04:03:40;;;;;;;5.45;3.13;;;;;;;9.25;100.00;100819.59;5093719;28;20028;-83
2023/01/25 04:06:07;;;;;;;5.05;2.97;;;;;;;9.37;100.00;100822.88;5094830;28;20504;-84
2023/01/25 04:08:36;;;;;;;5.15;3.00;;;;;;;9.34;100.00;100817.06;5092865;28;20043;-82
2023/01/25 04:11:08;;;;;;;5.57;3.05;;;;;;;9.56;100.00;100813.28;5091515;28;20028;-82
2023/01/25 04:13:35;;;;;;;3.20;2.30;;;;;;;9.54;100.00;100802.94;5087187;28;20040;-82
2023/01/25 04:16:02;;;;;;;3.80;2.45;;;;;;;9.48;100.00;100805.28;5091107;28;20040;-80
2023/01/25 04:18:28;;;;;;;3.05;2.13;;;;;;;9.21;100.00;100797.22;5088602;28;20414;-81
2023/01/25 04:20:56;;;;;;;3.38;2.10;;;;;;;9.33;100.00;100799.69;5090340;28;20038;-81
2023/01/25 04:23:23;;;;;;;2.72;1.95;;;;;;;9.40;100.00;100808.63;5093472;28;20396;-81
2023/01/25 04:25:57;;;;;;;2.78;2.22;;;;;;;9.41;100.00;100799.78;5097122;28;20028;-82
2023/01/25 04:28:23;;;;;;;2.35;1.90;;;;;;;9.25;100.00;100797.78;5097127;28;20381;-80
2023/01/25 04:30:49;;;;;;;3.67;2.22;;;;;;;9.35;100.00;100803.00;5096253;28;20035;-81
2023/01/25 04:33:15;;;;;;;3.38;1.80;;;;;;;9.39;100.00;100796.50;5097071;28;20436;-82
2023/01/25 04:35:42;;;;;;;2.47;1.98;;;;;;;9.45;100.00;100795.94;5096870;28;20389;-82
2023/01/25 04:38:09;;;;;;;3.00;1.90;;;;;;;9.31;100.00;100791.97;5094211;28;20047;-80
2023/01/25 04:40:35;;;;;;;5.25;2.92;;;;;;;9.21;100.00;100794.63;5094584;28;20039;-82
2023/01/25 04:43:02;;;;;;;4.60;3.17;;;;;;;9.33;100.00;100789.22;5096387;28;20032;-81
2023/01/25 04:45:28;;;;;;;6.10;3.65;;;;;;;9.31;100.00;100801.63;5095709;28;20077;-83
2023/01/25 04:47:58;;;;;;;6.65;3.58;;;;;;;9.19;100.00;100788.69;5095921;28;20024;-82
2023/01/25 04:50:24;;;;;;;7.68;4.07;;;;;;;9.21;100.00;100781.50;5094451;28;20031;-82
2023/01/25 04:52:50;;;;;;;6.85;4.10;;;;;;;9.13;100.00;100778.78;5094151;28;20546;-81
2023/01/25 04:55:16;;;;;;;6.25;4.07;;;;;;;9.21;100.00;100770.22;5094113;28;20032;-82
2023/01/25 04:57:42;;;;;;;7.75;4.35;;;;;;;9.42;100.00;100775.25;5094496;28;20028;-82
2023/01/25 05:00:09;;;;;;;4.85;3.60;;;;;;;9.33;100.00;100763.00;5098439;28;20535;-82
2023/01/25 05:02:35;;;;;;;5.45;3.83;;;;;;;9.09;100.00;100751.22;5096131;28;20020;-83
2023/01/25 05:05:00;;;;;;;6.13;4.18;;;;;;;9.22;100.00;100762.19;5094447;28;20028;-83
2023/01/25 05:07:26;;;;;;;6.85;4.22;;;;;;;9.14;100.00;100739.38;5095131;28;20046;-83
2023/01/25 05:09:51;;;;;;;7.50;4.60;;;;;;;9.07;100.00;100742.69;5094530;28;20020;-80
2023/01/25 05:12:17;;;;;;;8.35;4.45;;;;;;;8.92;100.00;100735.28;5094453;28;20020;-82
2023/01/25 05:14:42;;;;;;;6.65;4.13;;;;;;;9.02;100.00;100737.03;5093162;28;20036;-83
2023/01/25 05:17:08;;;;;;;6.85;4.57;;;;;;;8.96;100.00;100736.63;5095170;28;20016;-84
2023/01/25 05:19:34;;;;;;;8.38;4.47;;;;;;;8.98;100.00;100728.66;5093604;28;20107;-84
2023/01/25 05:22:01;;;;;;;6.13;4.20;;;;;;;8.88;100.00;100739.16;5095466;28;20048;-82
2023/01/25 05:24:29;;;;;;;7.07;4.20;;;;;;;8.78;100.00;100733.94;5095182;28;20036;-84
2023/01/25 05:26:59;;;;;;;7.85;4.70;;;;;;;8.65;100.00;100726.38;5100473;28;20040;-85
2023/01/25 05:29:28;;;;;;;7.15;3.92;;;;;;;8.66;100.00;100728.03;5101018;28;20082;-84
2023/01/25 05:31:55;;;;;;;6.88;4.15;;;;;;;8.67;100.00;100721.84;5101336;28;20036;-84
2023/01/25 05:34:20;;;;;;;6.13;3.80;;;;;;;8.69;100.00;100725.13;5099828;28;20454;-84
2023/01/25 05:36:48;;;;;;;7.60;4.20;;;;;;;8.55;100.00;100733.41;5099298;28;20032;-83
2023/01/25 05:39:13;;;;;;;5.53;4.38;;;;;;;8.69;100.00;100724.28;5101164;28;20248;-83
2023/01/25 05:41:39;;;;;;;4.88;3.90;;;;;;;8.67;100.00;100724.44;5099406;28;20028;-84
2023/01/25 05:44:05;;;;;;;5.53;4.07;;;;;;;8.57;100.00;100716.59;5099091;28;20027;-84
2023/01/25 05:46:31;;;;;;;5.20;3.80;;;;;;;8.50;100.00;100715.50;5080173;28;20174;-82
2023/01/25 05:48:56;;;;;;;5.07;3.35;;;;;;;8.43;100.00;100707.34;5093805;28;20024;-81
2023/01/25 05:51:22;;;;;;;6.65;3.90;;;;;;;8.39;100.00;100705.97;5093427;28;20028;-82
2023/01/25 05:53:48;;;;;;;6.65;3.97;;;;;;;8.59;100.00;100713.84;5094590;28;20512;-83
2023/01/25 05:56:13;;;;;;;6.97;4.40;;;;;;;8.65;100.00;100718.53;5094280;28;20031;-84
2023/01/25 05:58:39;;;;;;;8.35;4.63;;;;;;;8.71;100.00;100723.19;5093477;28;20042;-82
2023/01/25 06:01:06;;;;;;;6.22;4.63;;;;;;;8.89;100.00;100725.09;5094769;28;20536;-83
2023/01/25 06:03:33;;;;;;;6.90;4.40;;;;;;;8.98;100.00;100723.41;5094652;28;20023;-83
2023/01/25 06:06:01;;;;;;;5.78;4.25;;;;;;;8.95;100.00;100718.47;5093588;28;20051;-83
2023/01/25 06:08:28;;;;;;;6.30;4.30;;;;;;;8.81;100.00;100709.25;5094820;28;20032;-85
2023/01/25 06:10:54;;;;;;;7.72;4.88;;;;;;;8.97;100.00;100714.72;5094506;28;20052;-85
2023/01/25 06:13:23;;;;;;;6.15;3.92;;;;;;;9.04;100.00;100707.13;5094338;28;20063;-85
2023/01/25 06:15:56;;;;;;;7.20;4.93;;;;;;;9.05;100.00;100711.38;5089444;28;20114;-85
2023/01/25 06:18:23;;;;;;;6.87;4.43;;;;;;;9.01;100.00;100712.66;5092186;28;20040;-83
2023/01/25 06:20:50;;;;;;;8.27;3.80;;;;;;;9.02;100.00;100713.47;5093487;28;20511;-82
2023/01/25 06:23:16;;;;;;;5.55;3.67;;;;;;;8.96;100.00;100714.88;5091955;28;20036;-84
2023/01/25 06:25:42;;;;;;;6.30;3.70;;;;;;;8.85;100.00;100708.03;5093119;28;20040;-84
2023/01/25 06:28:09;;;;;;;5.75;3.38;;;;;;;9.03;100.00;100705.47;5091050;28;20082;-84
2023/01/25 06:30:34;;;;;;;5.85;3.60;;;;;;;8.90;100.00;100705.78;5093730;28;20047;-85
2023/01/25 06:33:01;;;;;;;6.75;4.00;;;;;;;9.23;100.00;100700.97;5093282;28;20059;-82
2023/01/25 06:35:27;;;;;;;6.32;4.10;;;;;;;9.36;100.00;100710.31;5093071;28;20542;-80
2023/01/25 06:37:55;;;;;;;6.47;4.30;;;;;;;9.29;100.00;100699.56;5074727;28;20070;-82
2023/01/25 06:40:21;;;;;;;8.52;5.20;;;;;;;9.22;100.00;100704.56;5092879;28;20564;-79
2023/01/25 06:42:46;;;;;;;8.35;5.28;;;;;;;9.51;100.00;100697.53;5090280;28;20066;-81
2023/01/25 06:45:12;;;;;;;7.65;5.28;;;;;;;9.62;100.00;100688.63;5090382;28;20137;-78
2023/01/25 06:47:39;;;;;;;7.22;5.07;;;;;;;9.75;100.00;100688.31;5090646;28;20035;-78
2023/01/25 06:50:05;;;;;;;8.30;5.75;;;;;;;9.91;100.00;100683.19;5091707;28;20020;-80
2023/01/25 06:52:35;;;;;;;8.30;5.22;;;;;;;9.89;100.00;100679.91;5089346;28;20074;-81
2023/01/25 06:55:06;;;;;;;7.05;4.85;;;;;;;9.77;100.00;100683.72;5091428;28;20020;-79
2023/01/25 06:57:33;;;;;;;6.32;4.55;;;;;;;9.94;100.00;100676.84;5091243;28;20031;-80
2023/01/25 06:59:59;;;;;;;9.32;6.35;;;;;;;9.84;100.00;100669.88;5091913;28;20054;-79
2023/01/25 07:02:25;;;;;;;8.32;5.03;;;;;;;10.07;100.00;100672.06;5091943;28;20468;-79
2023/01/25 07:04:51;;;;;;;7.18;5.30;;;;;;;10.02;100.00;100669.03;5089757;28;20048;-78
2023/01/25 07:07:18;;;;;;;20.13;8.50;;;;;;;9.89;100.00;100663.34;5089229;28;20034;-78
2023/01/25 07:09:43;;;;;;;7.60;5.50;;;;;;;9.99;100.00;100654.44;5088434;28;20024;-77
2023/01/25 07:12:09;;;;;;;7.25;5.43;;;;;;;9.96;100.00;100672.25;5090014;28;20024;-78
2023/01/25 07:14:35;;;;;;;7.70;6.40;;;;;;;10.05;100.00;100666.13;5090631;28;20481;-78
2023/01/25 07:17:00;;;;;;;7.80;6.32;;;;;;;9.99;100.00;100658.84;5089693;28;20039;-78
2023/01/25 07:19:26;;;;;;;7.72;6.22;;;;;;;10.22;100.00;100667.09;5091021;28;20497;-78
2023/01/25 07:21:52;;;;;;;7.43;5.90;;;;;;;10.15;100.00;100663.44;5087906;28;20038;-75
2023/01/25 07:24:19;;;;;;;7.22;5.03;;;;;;;10.33;100.00;100665.22;5089603;28;20035;-78
2023/01/25 07:26:47;;;;;;;6.07;5.03;;;;;;;10.42;100.00;100666.94;5089200;28;20039;-78
2023/01/25 07:29:15;;;;;;;5.88;4.85;;;;;;;10.47;100.00;100648.91;5089152;28;20493;-84
2023/01/25 07:31:41;;;;;;;9.77;6.80;;;;;;;10.56;100.00;100655.88;5090881;28;20111;-82
2023/01/25 07:34:09;;;;;;;6.75;4.97;;;;;;;10.61;100.00;100644.09;5087723;28;20047;-81
2023/01/25 07:36:36;;;;;;;4.90;4.00;;;;;;;10.60;100.00;100634.56;5086188;28;20115;-83
2023/01/25 07:39:02;;;;;;;4.45;3.78;;;;;;;10.64;100.00;100641.97;5092025;28;20032;-86
2023/01/25 07:41:28;;;;;;;3.50;2.80;;;;;;;10.45;100.00;100629.06;5092819;28;20081;-88
2023/01/25 07:43:54;;;;;;;3.00;2.53;;;;;;;10.54;100.00;100633.38;5073566;28;20443;-85
2023/01/25 07:46:22;;;;;;;2.92;2.33;;;;;;;10.59;100.00;100633.72;5091219;28;20039;-85
2023/01/25 07:48:50;;;;;;;2.45;2.17;;;;;;;10.90;100.00;100635.88;5090408;28;20028;-86
2023/01/25 07:51:21;;;;;;;2.25;2.05;;;;;;;10.98;100.00;100617.50;5091752;28;20032;-86
2023/01/25 07:53:50;;;;;;;2.08;1.88;;;;;;;10.96;100.00;100610.78;5091886;28;20032;-85
2023/01/25 07:56:18;;;;;;;2.13;1.80;;;;;;;10.97;100.00;100615.84;5088859;28;20047;-86
2023/01/25 07:58:44;;;;;;;2.05;1.67;;;;;;;10.85;100.00;100620.56;5092137;28;20050;-86
2023/01/25 08:01:19;;;;;;;1.58;1.48;;;;;;;10.71;100.00;100616.72;5091644;28;20784;-87
2023/01/25 08:03:46;;;;;;;1.95;1.50;;;;;;;10.80;100.00;100619.38;5094773;28;20081;-85
2023/01/25 08:06:12;;;;;;;2.10;1.63;;;;;;;10.97;100.00;100609.78;5093416;28;20055;-87
2023/01/25 08:08:47;;;;;;;1.52;1.30;;;;;;;10.78;100.00;100595.09;5095667;28;20024;-87
2023/01/25 08:11:19;;;;;;;1.50;1.30;;;;;;;10.93;100.00;100592.69;5077458;28;20525;-87
2023/01/25 08:13:45;;;;;;;1.35;1.25;;;;;;;11.11;100.00;100589.97;5095141;28;20382;-82
2023/01/25 08:16:15;;;;;;;1.90;1.45;;;;;;;11.38;100.00;100572.28;5094543;28;20028;-86
2023/01/25 08:18:40;;;;;;;1.30;1.20;;;;;;;11.32;100.00;100560.63;5095295;28;20039;-87
2023/01/25 08:21:07;;;;;;;1.17;1.08;;;;;;;11.41;100.00;100557.00;5094882;28;20035;-80
2023/01/25 08:23:33;;;;;;;1.95;1.75;;;;;;;11.16;100.00;100545.63;5095976;28;20081;-81
2023/01/25 08:26:06;;;;;;;2.25;1.40;;;;;;;11.29;100.00;100548.63;5095320;28;20028;-81
2023/01/25 08:28:32;;;;;;;2.20;1.70;;;;;;;11.18;100.00;100527.88;5096379;28;20466;-82
2023/01/25 08:31:05;;;;;;;1.85;1.63;;;;;;;11.25;100.00;100544.66;5094268;28;20073;-84
2023/01/25 08:33:31;;;;;;;2.47;2.03;;;;;;;11.39;100.00;100539.75;5095428;28;20562;-84
2023/01/25 08:35:57;;;;;;;2.42;1.85;;;;;;;11.35;100.00;100538.44;5093440;28;20036;-79
2023/01/25 08:38:24;;;;;;;3.03;2.30;;;;;;;11.20;100.00;100536.47;5093340;28;20374;-78
2023/01/25 08:40:52;;;;;;;2.85;2.55;;;;;;;10.94;100.00;100532.09;5091420;28;20088;-79
2023/01/25 08:43:18;;;;;;;3.40;2.80;;;;;;;10.77;100.00;100520.72;5092166;28;20032;-80
2023/01/25 08:45:44;;;;;;;5.55;3.00;;;;;;;10.89;100.00;100507.28;5091853;28;20545;-79
2023/01/25 08:48:14;;;;;;;3.75;2.88;;;;;;;11.10;100.00;100498.97;5093323;28;20115;-80
2023/01/25 08:50:47;;;;;;;2.97;2.70;;;;;;;11.52;100.00;100508.53;5091825;28;20016;-80
2023/01/25 08:53:13;;;;;;;4.32;3.13;;;;;;;11.12;100.00;100515.41;5093494;28;20057;-79
2023/01/25 08:55:41;;;;;;;3.50;2.78;;;;;;;11.47;100.00;100505.59;5093462;28;20059;-78
2023/01/25 08:58:10;;;;;;;4.78;3.08;;;;;;;11.69;100.00;100498.84;5092895;28;20128;-79
2023/01/25 09:00:39;;;;;;;3.33;2.60;;;;;;;11.25;100.00;100486.00;5093181;28;20027;-78
2023/01/25 09:03:09;;;;;;;4.10;2.75;;;;;;;11.70;100.00;100489.97;5092305;28;20036;-77
2023/01/25 09:05:38;;;;;;;3.63;2.83;;;;;;;11.86;100.00;100494.38;5091709;28;20111;-78
2023/01/25 09:08:06;;;;;;;3.38;2.78;;;;;;;11.80;100.00;100486.31;5086517;28;20149;-79
2023/01/25 09:10:32;;;;;;;3.60;2.83;;;;;;;11.90;100.00;100486.97;5093502;28;20028;-78
2023/01/25 09:12:58;;;;;;;4.70;3.30;;;;;;;12.08;100.00;100481.53;5092152;28;20024;-78
2023/01/25 09:15:24;;;;;;;2.80;2.30;;;;;;;11.81;100.00;100488.81;5093817;28;20036;-78
2023/01/25 09:17:54;;;;;;;3.80;2.65;;;;;;;12.05;100.00;100478.41;5092548;28;20035;-79
2023/01/25 09:20:21;;;;;;;2.80;2.30;;;;;;;12.51;100.00;100469.84;5091376;28;20035;-80
2023/01/25 09:22:46;;;;;;;3.97;2.92;;;;;;;12.67;100.00;100472.41;5090887;28;20028;-78
2023/01/25 09:25:13;;;;;;;3.15;2.58;;;;;;;12.88;100.00;100476.25;5091199;28;20049;-80
2023/01/25 09:27:38;;;;;;;3.60;2.67;;;;;;;12.95;100.00;100458.75;5089693;28;20070;-77
2023/01/25 09:30:06;;;;;;;3.65;2.47;;;;;;;13.08;100.00;100452.06;5090667;28;20028;-77
2023/01/25 09:32:31;;;;;;;3.92;2.92;;;;;;;13.29;100.00;100461.97;5091014;28;20398;-77
2023/01/25 09:34:57;;;;;;;4.30;3.03;;;;;;;13.21;100.00;100448.84;5092127;28;20035;-78
2023/01/25 09:37:23;;;;;;;3.47;2.60;;;;;;;12.78;100.00;100438.78;5090313;28;20031;-78
2023/01/25 09:39:48;;;;;;;2.47;2.22;;;;;;;12.58;100.00;100433.97;5092144;28;20020;-77
2023/01/25 09:42:31;;;;;;;3.10;2.40;;;;;;;12.31;100.00;100424.72;5092805;28;20032;-77
2023/01/25 09:45:01;;;;;;;3.63;2.45;;;;;;;12.37;100.00;100411.66;5088807;28;20032;-80
2023/01/25 09:47:42;;;;;;;2.42;1.95;;;;;;;12.08;100.00;100402.56;5072600;28;20505;-78
2023/01/25 09:50:38;;;;;;;3.55;2.55;;;;;;;12.43;100.00;100404.88;5072222;28;20473;-79
2023/01/25 09:53:23;;;;;;;2.10;1.80;;;;;;;12.41;100.00;100406.88;5090449;28;20056;-80
2023/01/25 09:55:57;;;;;;;2.70;2.00;;;;;;;12.33;100.00;100410.34;5090797;28;20047;-78
2023/01/25 09:58:43;;;;;;;3.65;1.60;;;;;;;12.10;100.00;100434.81;5089254;28;20112;-78
2023/01/25 10:01:16;;;;;;;2.30;1.83;;;;;;;12.55;100.00;100429.00;5092022;28;20118;-78
2023/01/25 10:03:52;;;;;;;1.92;1.70;;;;;;;12.71;100.00;100431.56;5091690;28;20114;-78
2023/01/25 10:06:22;;;;;;;2.17;1.77;;;;;;;12.57;100.00;100425.22;5090178;28;20377;-78
2023/01/25 10:09:01;;;;;;;2.53;1.80;;;;;;;12.67;100.00;100438.16;5089510;28;20040;-80
2023/01/25 10:11:29;;;;;;;2.25;1.73;;;;;;;12.75;100.00;100436.47;5091626;28;20066;-78
2023/01/25 10:13:56;;;;;;;1.77;1.58;;;;;;;12.64;100.00;100443.78;5091519;28;20055;-79
2023/01/25 10:16:24;;;;;;;1.75;1.50;;;;;;;12.54;100.00;100464.25;5089552;28;20404;-79
2023/01/25 10:19:00;;;;;;;2.60;1.90;;;;;;;13.41;100.00;100460.53;5088188;28;20489;-79
2023/01/25 10:21:52;;;;;;;1.77;1.40;;;;;;;12.94;100.00;100470.28;5087725;28;20039;-79
2023/01/25 10:24:36;;;;;;;1.70;1.02;;;;;;;13.04;100.00;100479.78;5090255;28;20032;-80
2023/01/25 10:27:29;;;;;;;1.30;1.20;;;;;;;13.25;100.00;100474.69;5085658;28;20036;-79
2023/01/25 10:29:57;;;;;;;2.45;1.00;;;;;;;13.27;100.00;100480.59;5090648;28;20062;-80
2023/01/25 10:32:32;;;;;;;1.02;1.00;;;;;;;13.03;100.00;100467.59;5089595;28;20060;-79
2023/01/25 10:35:13;;;;;;;1.42;1.20;;;;;;;13.11;100.00;100468.38;5091130;28;20027;-80
2023/01/25 10:37:40;;;;;;;2.60;1.38;;;;;;;12.69;100.00;100488.88;5088566;28;20032;-80
2023/01/25 10:40:16;;;;;;;1.67;1.25;;;;;;;12.91;100.00;100486.44;5090467;28;20039;-79
2023/01/25 10:42:58;;;;;;;0.90;0.90;;;;;;;13.24;100.00;100483.59;5087644;28;20047;-79
2023/01/25 10:45:23;;;;;;;1.20;1.00;;;;;;;13.28;100.00;100476.97;5089428;28;20024;-79
2023/01/25 10:48:02;;;;;;;1.67;1.50;;;;;;;13.23;100.00;100458.22;5090557;28;20035;-79
2023/01/25 10:50:42;;;;;;;1.90;1.70;;;;;;;12.93;100.00;100458.09;5090030;28;20028;-79
2023/01/25 10:53:44;;;;;;;3.08;2.10;;;;;;;12.84;100.00;100436.25;5090077;28;20032;-79
2023/01/25 10:56:23;;;;;;;3.20;2.60;;;;;;;13.06;100.00;100432.97;5064562;28;20432;-79
2023/01/25 10:58:53;;;;;;;4.38;3.88;;;;;;;13.16;100.00;100441.44;5089006;28;20052;-80
2023/01/25 11:01:32;;;;;;;3.22;2.40;;;;;;;12.62;100.00;100448.41;5088537;28;20371;-77
2023/01/25 11:04:00;;;;;;;4.28;3.25;;;;;;;12.41;100.00;100426.13;5086655;28;20111;-80
2023/01/25 11:06:36;;;;;;;3.45;2.97;;;;;;;12.18;100.00;100438.38;5086931;28;20036;-79
2023/01/25 11:09:21;;;;;;;3.55;3.05;;;;;;;12.01;100.00;100467.41;5089623;28;20048;-78
2023/01/25 11:11:55;;;;;;;4.38;3.25;;;;;;;12.03;100.00;100443.53;5086130;28;20074;-78
2023/01/25 11:14:23;;;;;;;3.42;2.78;;;;;;;12.45;100.00;100423.97;5090090;28;20388;-79
2023/01/25 11:16:51;;;;;;;4.22;3.65;;;;;;;11.64;100.00;100437.22;5086483;28;20035;-78
2023/01/25 11:19:32;;;;;;;7.10;4.25;;;;;;;11.79;100.00;100429.44;5088897;28;20028;-79
2023/01/25 11:22:00;;;;;;;5.45;4.28;;;;;;;11.73;100.00;100457.22;5088918;28;20043;-79
2023/01/25 11:24:32;;;;;;;6.78;4.85;;;;;;;11.77;100.00;100441.94;5089554;28;20089;-80